createdAt,value
2022-10-07T00:13:15.017Z,7.6
2022-10-07T00:27:47.651Z,7.7
2022-10-07T00:42:17.359Z,7.2
2022-10-07T00:56:49.291Z,7.6
2022-10-07T01:11:21.583Z,7.2
2022-10-07T01:25:54.759Z,7.7
2022-10-07T01:40:33.217Z,7.4
2022-10-07T01:55:00.352Z,7
2022-10-07T02:09:32.142Z,7.1
2022-10-07T02:24:03.510Z,7
2022-10-07T02:38:36.396Z,6.9
2022-10-07T02:53:08.414Z,6.8
2022-10-07T03:07:40.370Z,6.7
2022-10-07T03:22:11.130Z,6.7
2022-10-07T03:36:42.438Z,6.2
2022-10-07T03:51:13.895Z,6.6
2022-10-07T04:05:46.327Z,6.1
2022-10-07T04:20:17.422Z,6
2022-10-07T04:34:49.634Z,5.9
2022-10-07T04:49:22.182Z,5.9
2022-10-07T05:03:54.139Z,5.7
2022-10-07T05:18:26.327Z,5.8
2022-10-07T05:32:59.226Z,5.8
2022-10-07T05:47:30.947Z,5.8
2022-10-07T06:02:03.350Z,5.6
2022-10-07T06:16:35.103Z,5.5
2022-10-07T06:31:08.326Z,5.8
2022-10-07T06:45:41.248Z,5.9
2022-10-07T07:00:14.624Z,6.2
2022-10-07T07:14:45.747Z,7
2022-10-07T07:29:20.171Z,7.6
2022-10-07T07:43:53.968Z,8
2022-10-07T07:58:27.550Z,8.9
2022-10-07T08:13:03.977Z,11
2022-10-07T08:27:53.025Z,12.6
2022-10-07T08:42:28.609Z,14.2
2022-10-07T08:56:58.513Z,14.1
2022-10-07T09:11:37.289Z,14.8
2022-10-07T09:26:16.544Z,17.1
2022-10-07T09:40:51.933Z,16.6
2022-10-07T09:55:17.846Z,15.7
2022-10-07T10:09:51.068Z,15.7
2022-10-07T10:24:26.255Z,16
2022-10-07T10:38:59.558Z,16.3
2022-10-07T10:53:32.756Z,16.6
2022-10-07T11:08:05.169Z,16.9
2022-10-07T11:22:37.429Z,17
2022-10-07T11:37:10.620Z,17.1
2022-10-07T11:51:42.932Z,17.5
2022-10-07T12:06:15.875Z,17.5
2022-10-07T12:20:49.199Z,17.6
2022-10-07T12:35:19.617Z,17.5
2022-10-07T12:49:57.178Z,18
2022-10-07T13:04:26.611Z,18.2
2022-10-07T13:18:57.273Z,18.2
2022-10-07T13:33:29.674Z,18
2022-10-07T13:48:02.179Z,18.3
2022-10-07T14:02:39.302Z,18.1
2022-10-07T14:17:11.226Z,18.2
2022-10-07T14:31:42.046Z,18.4
2022-10-07T14:46:14.176Z,18.3
2022-10-07T15:00:47.157Z,18.2
2022-10-07T15:15:19.235Z,17.9
2022-10-07T15:29:52.403Z,17.6
2022-10-07T15:44:23.073Z,17.5
2022-10-07T15:58:56.023Z,17.2
2022-10-07T16:13:28.125Z,16.8
2022-10-07T16:28:00.427Z,16.6
2022-10-07T16:42:30.878Z,15.9
2022-10-07T16:57:02.289Z,15.6
2022-10-07T17:11:35.167Z,15.2
2022-10-07T17:26:06.647Z,15.2
2022-10-07T17:40:39.242Z,15
2022-10-07T17:55:12.594Z,14.7
2022-10-07T18:09:44.606Z,14
2022-10-07T18:24:15.588Z,14
2022-10-07T18:38:47.051Z,13.7
2022-10-07T18:53:19.633Z,13.6
2022-10-07T19:07:51.742Z,13.5
2022-10-07T19:22:24.624Z,13.8
2022-10-07T19:36:56.751Z,12.1
2022-10-07T19:51:29.526Z,11.7
2022-10-07T20:06:03.973Z,12.3
2022-10-07T20:20:34.528Z,12.4
2022-10-07T20:49:37.152Z,11.6
2022-10-07T21:04:09.156Z,11.3
2022-10-07T21:18:40.792Z,11.6
2022-10-07T21:33:11.496Z,10.2
2022-10-07T21:47:42.934Z,9.9
2022-10-07T22:02:14.083Z,10.5
2022-10-07T22:16:43.223Z,10.1
2022-10-07T22:31:14.094Z,9.2
2022-10-07T22:45:45.356Z,9.1
2022-10-07T23:00:15.777Z,9.1
2022-10-07T23:14:47.956Z,9.3
2022-10-07T23:29:19.807Z,8.5
2022-10-07T23:43:50.724Z,8.4
2022-10-07T23:58:24.684Z,8.6
